If you wish to contribute or participate in the discussions about articles you are invited to join SKYbrary as a registered user

 Actions

Eielson Air Force Base

From SKYbrary Wiki

PAEI
Airport
ICAO: PAEI
Summary
Name Eielson Air Force Base
Region North America
Territory Alaska US.gif
Location Fairbanks, Alaska
Serving
Coordinates 64° 39' 2.10" N, 147° 4' 0.83" W
Runways
Designator Length Width Surface ROPS
14/32 4429 m14,530.84 ft
46 m150.919 ft
CONC yes/yes


METAR
Observation PAEI 141656Z AUTO 34007KT 10SM CLR M09/M12 A3000 RMK AO2 SLP172 T10951120 $
Station Fairbanks, Eielson Air Force Base
Date/Time 14 October 2019 16:56:00
Wind direction 340°
Wind speed 07 kts
Lowest cloud amount n/a
Temperature
Dew point
Humidity 81%
QNH hPa
Weather condition n/a

BS
Tag(s) Non Avian Wildlife Hazards to Aircraft
CFIT
Tag(s) Altimeter Temperature Error Correction
WX
Tag(s)

Eielson Air Force Base

ICAO: PAEI IATA: EIL

Description

Eilson Air Force Base is a United States Air Force base located near Moose Creek, a town 42 km22.678 nm
42,000 m
137,795.276 ft
southeast of Fairbanks, Alaska.

Climatology

Subarctic climate (Köppen climate classification Dfc) - long, usually very cold winters, and short, cool to mild summers.

Maps

Terrain

Loading map...

Airport Layout

Loading map...


Accidents & Serious Incidents at or in vicinity of PAEI

None on SKYbrary